sensor_id;sensor_type;location;lat;lon;timestamp;temperature;humidity
19258;DHT22;9763;48.780;9.212;2023-09-08T00:01:13;22.20;50.30
19258;DHT22;9763;48.780;9.212;2023-09-08T00:04:55;22.30;50.50
19258;DHT22;9763;48.780;9.212;2023-09-08T00:08:37;22.30;50.50
19258;DHT22;9763;48.780;9.212;2023-09-08T00:12:19;22.20;50.60
19258;DHT22;9763;48.780;9.212;2023-09-08T00:16:01;22.20;50.80
19258;DHT22;9763;48.780;9.212;2023-09-08T00:19:45;22.20;50.90
19258;DHT22;9763;48.780;9.212;2023-09-08T00:23:27;22.10;51.00
19258;DHT22;9763;48.780;9.212;2023-09-08T00:27:09;22.10;51.00
19258;DHT22;9763;48.780;9.212;2023-09-08T00:30:50;22.10;51.10
19258;DHT22;9763;48.780;9.212;2023-09-08T00:34:32;22.00;51.10
19258;DHT22;9763;48.780;9.212;2023-09-08T00:38:16;22.00;51.30
19258;DHT22;9763;48.780;9.212;2023-09-08T00:41:58;21.90;51.30
19258;DHT22;9763;48.780;9.212;2023-09-08T00:45:42;21.90;51.50
19258;DHT22;9763;48.780;9.212;2023-09-08T00:49:25;21.90;51.70
19258;DHT22;9763;48.780;9.212;2023-09-08T00:53:09;21.80;52.30
19258;DHT22;9763;48.780;9.212;2023-09-08T00:56:54;21.80;51.90
19258;DHT22;9763;48.780;9.212;2023-09-08T01:00:37;21.70;52.00
19258;DHT22;9763;48.780;9.212;2023-09-08T01:04:20;21.60;51.90
19258;DHT22;9763;48.780;9.212;2023-09-08T01:08:03;21.60;52.00
19258;DHT22;9763;48.780;9.212;2023-09-08T01:11:46;20.40;51.20
19258;DHT22;9763;48.780;9.212;2023-09-08T01:15:30;21.50;52.20
19258;DHT22;9763;48.780;9.212;2023-09-08T01:19:14;21.50;52.40
19258;DHT22;9763;48.780;9.212;2023-09-08T01:23:16;21.40;52.40
19258;DHT22;9763;48.780;9.212;2023-09-08T01:27:03;21.40;53.10
19258;DHT22;9763;48.780;9.212;2023-09-08T01:30:48;21.40;52.60
19258;DHT22;9763;48.780;9.212;2023-09-08T01:34:31;21.40;52.60
19258;DHT22;9763;48.780;9.212;2023-09-08T01:38:14;21.30;52.50
19258;DHT22;9763;48.780;9.212;2023-09-08T01:41:56;21.30;52.80
19258;DHT22;9763;48.780;9.212;2023-09-08T01:45:39;21.20;52.70
19258;DHT22;9763;48.780;9.212;2023-09-08T01:49:23;21.20;52.80
19258;DHT22;9763;48.780;9.212;2023-09-08T01:53:05;21.20;52.90
19258;DHT22;9763;48.780;9.212;2023-09-08T01:56:47;21.10;52.90
19258;DHT22;9763;48.780;9.212;2023-09-08T02:00:30;21.10;53.00
19258;DHT22;9763;48.780;9.212;2023-09-08T02:04:14;21.10;53.00
19258;DHT22;9763;48.780;9.212;2023-09-08T02:07:56;21.00;53.80
19258;DHT22;9763;48.780;9.212;2023-09-08T02:11:38;21.00;53.20
19258;DHT22;9763;48.780;9.212;2023-09-08T02:15:20;21.00;53.30
19258;DHT22;9763;48.780;9.212;2023-09-08T02:19:02;20.90;53.30
19258;DHT22;9763;48.780;9.212;2023-09-08T02:22:45;20.90;53.40
19258;DHT22;9763;48.780;9.212;2023-09-08T02:26:30;20.90;53.70
19258;DHT22;9763;48.780;9.212;2023-09-08T02:30:14;20.80;53.50
19258;DHT22;9763;48.780;9.212;2023-09-08T02:33:57;20.80;53.70
19258;DHT22;9763;48.780;9.212;2023-09-08T02:37:39;20.80;53.80
19258;DHT22;9763;48.780;9.212;2023-09-08T02:41:23;20.70;53.70
19258;DHT22;9763;48.780;9.212;2023-09-08T02:45:06;20.70;54.00
19258;DHT22;9763;48.780;9.212;2023-09-08T02:48:49;20.60;53.90
19258;DHT22;9763;48.780;9.212;2023-09-08T02:52:31;20.60;54.00
19258;DHT22;9763;48.780;9.212;2023-09-08T02:56:14;20.60;53.90
19258;DHT22;9763;48.780;9.212;2023-09-08T02:59:57;20.60;53.90
19258;DHT22;9763;48.780;9.212;2023-09-08T03:03:41;20.50;54.00
19258;DHT22;9763;48.780;9.212;2023-09-08T03:07:24;20.50;54.00
19258;DHT22;9763;48.780;9.212;2023-09-08T03:11:07;20.40;54.00
19258;DHT22;9763;48.780;9.212;2023-09-08T03:14:49;20.40;54.10
19258;DHT22;9763;48.780;9.212;2023-09-08T03:18:33;20.40;54.20
19258;DHT22;9763;48.780;9.212;2023-09-08T03:22:17;20.30;54.40
19258;DHT22;9763;48.780;9.212;2023-09-08T03:25:59;20.30;54.30
19258;DHT22;9763;48.780;9.212;2023-09-08T03:29:42;20.30;54.50
19258;DHT22;9763;48.780;9.212;2023-09-08T03:33:23;20.20;54.40
19258;DHT22;9763;48.780;9.212;2023-09-08T03:37:07;20.20;54.60
19258;DHT22;9763;48.780;9.212;2023-09-08T03:40:50;20.20;55.40
19258;DHT22;9763;48.780;9.212;2023-09-08T03:44:32;20.10;54.90
19258;DHT22;9763;48.780;9.212;2023-09-08T03:48:14;20.10;54.90
19258;DHT22;9763;48.780;9.212;2023-09-08T03:51:58;20.10;55.00
19258;DHT22;9763;48.780;9.212;2023-09-08T03:55:42;20.00;55.00
19258;DHT22;9763;48.780;9.212;2023-09-08T03:59:23;20.00;55.10
19258;DHT22;9763;48.780;9.212;2023-09-08T04:03:05;19.90;55.10
19258;DHT22;9763;48.780;9.212;2023-09-08T04:06:47;19.90;55.30
19258;DHT22;9763;48.780;9.212;2023-09-08T04:10:29;19.90;55.40
19258;DHT22;9763;48.780;9.212;2023-09-08T04:14:13;19.80;55.40
19258;DHT22;9763;48.780;9.212;2023-09-08T04:17:55;19.80;55.70
19258;DHT22;9763;48.780;9.212;2023-09-08T04:21:40;19.80;55.70
19258;DHT22;9763;48.780;9.212;2023-09-08T04:25:22;19.70;55.70
19258;DHT22;9763;48.780;9.212;2023-09-08T04:29:05;19.70;55.70
19258;DHT22;9763;48.780;9.212;2023-09-08T04:32:49;19.70;55.80
19258;DHT22;9763;48.780;9.212;2023-09-08T04:36:31;19.60;56.00
19258;DHT22;9763;48.780;9.212;2023-09-08T04:40:13;19.60;56.00
19258;DHT22;9763;48.780;9.212;2023-09-08T04:43:56;19.60;55.90
19258;DHT22;9763;48.780;9.212;2023-09-08T04:47:39;19.60;56.00
19258;DHT22;9763;48.780;9.212;2023-09-08T04:51:22;19.50;56.00
19258;DHT22;9763;48.780;9.212;2023-09-08T04:55:07;19.50;56.30
19258;DHT22;9763;48.780;9.212;2023-09-08T04:58:50;19.50;56.30
19258;DHT22;9763;48.780;9.212;2023-09-08T05:02:33;19.50;56.20
19258;DHT22;9763;48.780;9.212;2023-09-08T05:06:16;19.50;56.30
19258;DHT22;9763;48.780;9.212;2023-09-08T05:10:00;19.50;56.50
19258;DHT22;9763;48.780;9.212;2023-09-08T05:13:46;19.50;56.80
19258;DHT22;9763;48.780;9.212;2023-09-08T05:17:28;19.50;56.80
19258;DHT22;9763;48.780;9.212;2023-09-08T05:21:11;19.40;56.80
19258;DHT22;9763;48.780;9.212;2023-09-08T05:24:55;19.40;56.80
19258;DHT22;9763;48.780;9.212;2023-09-08T05:28:39;19.40;57.00
19258;DHT22;9763;48.780;9.212;2023-09-08T05:32:24;19.50;57.30
19258;DHT22;9763;48.780;9.212;2023-09-08T05:36:07;19.40;57.00
19258;DHT22;9763;48.780;9.212;2023-09-08T05:39:49;19.50;57.20
19258;DHT22;9763;48.780;9.212;2023-09-08T05:43:30;19.50;57.40
19258;DHT22;9763;48.780;9.212;2023-09-08T05:47:15;19.60;57.60
19258;DHT22;9763;48.780;9.212;2023-09-08T05:50:59;19.60;57.70
19258;DHT22;9763;48.780;9.212;2023-09-08T05:54:43;19.70;57.70
19258;DHT22;9763;48.780;9.212;2023-09-08T05:58:26;19.80;57.80
19258;DHT22;9763;48.780;9.212;2023-09-08T06:02:08;19.80;57.80
19258;DHT22;9763;48.780;9.212;2023-09-08T06:05:33;20.00;57.90
19258;DHT22;9763;48.780;9.212;2023-09-08T06:08:59;20.10;58.00
19258;DHT22;9763;48.780;9.212;2023-09-08T06:12:23;20.20;58.00
19258;DHT22;9763;48.780;9.212;2023-09-08T06:15:46;20.40;59.40
19258;DHT22;9763;48.780;9.212;2023-09-08T06:19:11;20.70;61.70
19258;DHT22;9763;48.780;9.212;2023-09-08T06:22:37;21.40;63.90
19258;DHT22;9763;48.780;9.212;2023-09-08T06:26:01;22.20;65.00
19258;DHT22;9763;48.780;9.212;2023-09-08T06:29:27;23.00;65.60
19258;DHT22;9763;48.780;9.212;2023-09-08T06:32:51;23.90;65.90
19258;DHT22;9763;48.780;9.212;2023-09-08T06:36:14;24.90;66.10
19258;DHT22;9763;48.780;9.212;2023-09-08T06:39:39;25.90;65.80
19258;DHT22;9763;48.780;9.212;2023-09-08T06:43:03;26.90;65.00
19258;DHT22;9763;48.780;9.212;2023-09-08T06:46:42;27.90;63.80
19258;DHT22;9763;48.780;9.212;2023-09-08T06:50:07;28.90;62.40
19258;DHT22;9763;48.780;9.212;2023-09-08T06:53:32;29.70;60.70
19258;DHT22;9763;48.780;9.212;2023-09-08T06:56:57;30.40;59.00
19258;DHT22;9763;48.780;9.212;2023-09-08T07:00:21;31.00;57.60
19258;DHT22;9763;48.780;9.212;2023-09-08T07:03:44;31.60;57.00
19258;DHT22;9763;48.780;9.212;2023-09-08T07:07:09;32.10;56.10
19258;DHT22;9763;48.780;9.212;2023-09-08T07:10:34;32.60;55.40
19258;DHT22;9763;48.780;9.212;2023-09-08T07:13:59;33.00;54.40
19258;DHT22;9763;48.780;9.212;2023-09-08T07:17:23;33.40;53.50
19258;DHT22;9763;48.780;9.212;2023-09-08T07:20:47;33.90;53.20
19258;DHT22;9763;48.780;9.212;2023-09-08T07:24:12;34.30;52.40
19258;DHT22;9763;48.780;9.212;2023-09-08T07:27:37;34.80;51.70
19258;DHT22;9763;48.780;9.212;2023-09-08T07:31:04;35.20;50.90
19258;DHT22;9763;48.780;9.212;2023-09-08T07:34:31;35.50;49.90
19258;DHT22;9763;48.780;9.212;2023-09-08T07:37:55;35.90;49.60
19258;DHT22;9763;48.780;9.212;2023-09-08T07:41:19;36.30;48.60
19258;DHT22;9763;48.780;9.212;2023-09-08T07:44:43;36.60;47.80
19258;DHT22;9763;48.780;9.212;2023-09-08T07:48:08;36.80;47.20
19258;DHT22;9763;48.780;9.212;2023-09-08T07:51:32;37.00;46.20
19258;DHT22;9763;48.780;9.212;2023-09-08T07:55:14;37.20;46.00
19258;DHT22;9763;48.780;9.212;2023-09-08T07:58:56;37.40;45.40
19258;DHT22;9763;48.780;9.212;2023-09-08T08:02:41;37.70;44.80
19258;DHT22;9763;48.780;9.212;2023-09-08T08:06:28;37.80;44.10
19258;DHT22;9763;48.780;9.212;2023-09-08T08:10:11;37.90;43.40
19258;DHT22;9763;48.780;9.212;2023-09-08T08:13:53;38.10;43.10
19258;DHT22;9763;48.780;9.212;2023-09-08T08:17:37;38.20;42.80
19258;DHT22;9763;48.780;9.212;2023-09-08T08:21:20;38.30;42.60
19258;DHT22;9763;48.780;9.212;2023-09-08T08:25:05;38.40;42.30
19258;DHT22;9763;48.780;9.212;2023-09-08T08:28:50;38.50;41.90
19258;DHT22;9763;48.780;9.212;2023-09-08T08:32:33;38.70;41.90
19258;DHT22;9763;48.780;9.212;2023-09-08T08:36:15;38.90;41.40
19258;DHT22;9763;48.780;9.212;2023-09-08T08:39:57;39.10;41.20
19258;DHT22;9763;48.780;9.212;2023-09-08T08:43:41;39.30;40.90
19258;DHT22;9763;48.780;9.212;2023-09-08T08:47:25;39.50;40.30
19258;DHT22;9763;48.780;9.212;2023-09-08T08:51:10;39.60;40.10
19258;DHT22;9763;48.780;9.212;2023-09-08T08:54:54;39.80;39.90
19258;DHT22;9763;48.780;9.212;2023-09-08T08:58:37;40.00;39.30
19258;DHT22;9763;48.780;9.212;2023-09-08T09:02:22;40.00;38.80
19258;DHT22;9763;48.780;9.212;2023-09-08T09:06:07;40.10;38.60
19258;DHT22;9763;48.780;9.212;2023-09-08T09:09:49;40.30;38.80
19258;DHT22;9763;48.780;9.212;2023-09-08T09:13:32;40.40;38.60
19258;DHT22;9763;48.780;9.212;2023-09-08T09:17:15;40.60;38.30
19258;DHT22;9763;48.780;9.212;2023-09-08T09:20:59;40.80;38.00
19258;DHT22;9763;48.780;9.212;2023-09-08T09:24:42;41.00;37.40
19258;DHT22;9763;48.780;9.212;2023-09-08T09:28:25;41.20;37.40
19258;DHT22;9763;48.780;9.212;2023-09-08T09:32:10;41.30;37.00
19258;DHT22;9763;48.780;9.212;2023-09-08T09:35:54;41.50;36.80
19258;DHT22;9763;48.780;9.212;2023-09-08T09:39:37;41.70;36.50
19258;DHT22;9763;48.780;9.212;2023-09-08T09:43:21;41.80;36.00
19258;DHT22;9763;48.780;9.212;2023-09-08T09:47:04;41.90;35.40
19258;DHT22;9763;48.780;9.212;2023-09-08T09:50:47;41.90;35.20
19258;DHT22;9763;48.780;9.212;2023-09-08T09:54:30;41.90;34.90
19258;DHT22;9763;48.780;9.212;2023-09-08T09:58:13;41.90;34.80
19258;DHT22;9763;48.780;9.212;2023-09-08T10:01:56;41.90;34.70
19258;DHT22;9763;48.780;9.212;2023-09-08T10:05:39;41.80;34.40
19258;DHT22;9763;48.780;9.212;2023-09-08T10:09:21;41.80;34.50
19258;DHT22;9763;48.780;9.212;2023-09-08T10:13:06;41.80;34.50
19258;DHT22;9763;48.780;9.212;2023-09-08T10:16:56;41.80;34.20
19258;DHT22;9763;48.780;9.212;2023-09-08T10:20:41;41.80;34.00
19258;DHT22;9763;48.780;9.212;2023-09-08T10:24:26;41.80;34.20
19258;DHT22;9763;48.780;9.212;2023-09-08T10:28:09;42.00;34.00
19258;DHT22;9763;48.780;9.212;2023-09-08T10:31:54;42.10;33.70
19258;DHT22;9763;48.780;9.212;2023-09-08T10:35:38;42.20;33.20
19258;DHT22;9763;48.780;9.212;2023-09-08T10:39:29;42.20;33.20
19258;DHT22;9763;48.780;9.212;2023-09-08T10:43:17;42.20;32.40
19258;DHT22;9763;48.780;9.212;2023-09-08T10:47:02;42.20;32.70
19258;DHT22;9763;48.780;9.212;2023-09-08T10:50:44;42.30;32.50
19258;DHT22;9763;48.780;9.212;2023-09-08T10:54:40;42.20;32.30
19258;DHT22;9763;48.780;9.212;2023-09-08T10:58:31;42.20;31.40
19258;DHT22;9763;48.780;9.212;2023-09-08T11:02:32;42.20;31.70
19258;DHT22;9763;48.780;9.212;2023-09-08T11:06:16;42.10;30.80
19258;DHT22;9763;48.780;9.212;2023-09-08T11:10:00;42.00;31.70
19258;DHT22;9763;48.780;9.212;2023-09-08T11:13:42;41.90;32.00
19258;DHT22;9763;48.780;9.212;2023-09-08T11:17:26;41.90;31.80
19258;DHT22;9763;48.780;9.212;2023-09-08T11:21:10;41.80;31.70
19258;DHT22;9763;48.780;9.212;2023-09-08T11:24:53;41.80;31.80
19258;DHT22;9763;48.780;9.212;2023-09-08T11:28:37;41.70;32.00
19258;DHT22;9763;48.780;9.212;2023-09-08T11:32:19;41.70;32.00
19258;DHT22;9763;48.780;9.212;2023-09-08T11:36:01;41.70;31.90
19258;DHT22;9763;48.780;9.212;2023-09-08T11:39:45;41.70;31.70
19258;DHT22;9763;48.780;9.212;2023-09-08T11:43:28;41.70;31.90
19258;DHT22;9763;48.780;9.212;2023-09-08T11:47:13;41.70;32.10
19258;DHT22;9763;48.780;9.212;2023-09-08T11:50:56;41.80;32.10
19258;DHT22;9763;48.780;9.212;2023-09-08T11:54:39;42.00;32.10
19258;DHT22;9763;48.780;9.212;2023-09-08T11:58:37;42.10;31.60
19258;DHT22;9763;48.780;9.212;2023-09-08T12:02:19;42.20;31.50
19258;DHT22;9763;48.780;9.212;2023-09-08T12:06:02;42.10;31.30
19258;DHT22;9763;48.780;9.212;2023-09-08T12:09:45;42.00;31.70
19258;DHT22;9763;48.780;9.212;2023-09-08T12:13:27;41.80;30.40
19258;DHT22;9763;48.780;9.212;2023-09-08T12:17:11;41.50;30.40
19258;DHT22;9763;48.780;9.212;2023-09-08T12:21:03;41.20;30.70
19258;DHT22;9763;48.780;9.212;2023-09-08T12:24:48;41.00;30.70
19258;DHT22;9763;48.780;9.212;2023-09-08T12:28:32;40.80;30.80
19258;DHT22;9763;48.780;9.212;2023-09-08T12:32:16;40.60;30.90
19258;DHT22;9763;48.780;9.212;2023-09-08T12:35:58;40.40;31.10
19258;DHT22;9763;48.780;9.212;2023-09-08T12:39:40;40.70;31.50
19258;DHT22;9763;48.780;9.212;2023-09-08T12:43:22;40.10;31.40
19258;DHT22;9763;48.780;9.212;2023-09-08T12:47:09;40.00;31.40
19258;DHT22;9763;48.780;9.212;2023-09-08T12:50:53;39.80;31.40
19258;DHT22;9763;48.780;9.212;2023-09-08T12:54:35;39.70;31.30
19258;DHT22;9763;48.780;9.212;2023-09-08T12:58:17;39.50;31.30
19258;DHT22;9763;48.780;9.212;2023-09-08T13:01:59;39.20;31.30
19258;DHT22;9763;48.780;9.212;2023-09-08T13:05:41;38.90;31.10
19258;DHT22;9763;48.780;9.212;2023-09-08T13:09:25;38.50;31.30
19258;DHT22;9763;48.780;9.212;2023-09-08T13:13:07;38.10;31.60
19258;DHT22;9763;48.780;9.212;2023-09-08T13:16:49;37.90;32.10
19258;DHT22;9763;48.780;9.212;2023-09-08T13:20:31;37.60;32.30
19258;DHT22;9763;48.780;9.212;2023-09-08T13:24:13;37.50;33.20
19258;DHT22;9763;48.780;9.212;2023-09-08T13:27:56;37.40;32.60
19258;DHT22;9763;48.780;9.212;2023-09-08T13:31:38;37.20;32.70
19258;DHT22;9763;48.780;9.212;2023-09-08T13:35:20;37.10;33.30
19258;DHT22;9763;48.780;9.212;2023-09-08T13:39:03;37.00;32.60
19258;DHT22;9763;48.780;9.212;2023-09-08T13:42:45;36.80;32.60
19258;DHT22;9763;48.780;9.212;2023-09-08T13:46:29;36.60;32.60
19258;DHT22;9763;48.780;9.212;2023-09-08T13:50:12;36.50;32.70
19258;DHT22;9763;48.780;9.212;2023-09-08T13:53:56;36.30;32.70
19258;DHT22;9763;48.780;9.212;2023-09-08T13:57:40;36.20;32.90
19258;DHT22;9763;48.780;9.212;2023-09-08T14:01:22;36.10;32.80
19258;DHT22;9763;48.780;9.212;2023-09-08T14:05:08;36.00;32.80
19258;DHT22;9763;48.780;9.212;2023-09-08T14:08:51;35.80;32.90
19258;DHT22;9763;48.780;9.212;2023-09-08T14:12:36;35.70;33.00
19258;DHT22;9763;48.780;9.212;2023-09-08T14:16:18;35.60;33.10
19258;DHT22;9763;48.780;9.212;2023-09-08T14:20:00;35.40;33.30
19258;DHT22;9763;48.780;9.212;2023-09-08T14:23:45;35.30;33.40
19258;DHT22;9763;48.780;9.212;2023-09-08T14:27:27;35.20;33.50
19258;DHT22;9763;48.780;9.212;2023-09-08T14:31:09;35.10;34.10
19258;DHT22;9763;48.780;9.212;2023-09-08T14:34:52;34.90;33.40
19258;DHT22;9763;48.780;9.212;2023-09-08T14:38:34;34.80;33.50
19258;DHT22;9763;48.780;9.212;2023-09-08T14:42:18;34.70;33.70
19258;DHT22;9763;48.780;9.212;2023-09-08T14:46:00;34.50;33.80
19258;DHT22;9763;48.780;9.212;2023-09-08T14:49:43;34.50;34.00
19258;DHT22;9763;48.780;9.212;2023-09-08T14:53:26;34.40;34.00
19258;DHT22;9763;48.780;9.212;2023-09-08T14:57:08;34.30;34.00
19258;DHT22;9763;48.780;9.212;2023-09-08T15:00:52;34.20;34.10
19258;DHT22;9763;48.780;9.212;2023-09-08T15:04:34;34.10;33.90
19258;DHT22;9763;48.780;9.212;2023-09-08T15:08:16;34.10;33.90
19258;DHT22;9763;48.780;9.212;2023-09-08T15:11:58;33.90;34.00
19258;DHT22;9763;48.780;9.212;2023-09-08T15:15:40;33.70;34.10
19258;DHT22;9763;48.780;9.212;2023-09-08T15:19:24;33.60;34.40
19258;DHT22;9763;48.780;9.212;2023-09-08T15:23:07;33.60;34.80
19258;DHT22;9763;48.780;9.212;2023-09-08T15:26:49;33.50;34.80
19258;DHT22;9763;48.780;9.212;2023-09-08T15:30:31;33.40;34.80
19258;DHT22;9763;48.780;9.212;2023-09-08T15:34:13;33.30;35.00
19258;DHT22;9763;48.780;9.212;2023-09-08T15:37:57;33.20;35.00
19258;DHT22;9763;48.780;9.212;2023-09-08T15:41:38;33.20;35.20
19258;DHT22;9763;48.780;9.212;2023-09-08T15:45:20;33.10;35.20
19258;DHT22;9763;48.780;9.212;2023-09-08T15:49:03;33.10;35.40
19258;DHT22;9763;48.780;9.212;2023-09-08T15:52:46;33.00;35.50
19258;DHT22;9763;48.780;9.212;2023-09-08T15:56:30;33.00;35.60
19258;DHT22;9763;48.780;9.212;2023-09-08T16:00:13;32.90;35.60
19258;DHT22;9763;48.780;9.212;2023-09-08T16:03:55;32.90;35.60
19258;DHT22;9763;48.780;9.212;2023-09-08T16:07:38;32.40;35.50
19258;DHT22;9763;48.780;9.212;2023-09-08T16:11:22;32.90;35.90
19258;DHT22;9763;48.780;9.212;2023-09-08T16:15:06;32.80;35.80
19258;DHT22;9763;48.780;9.212;2023-09-08T16:18:49;32.70;35.90
19258;DHT22;9763;48.780;9.212;2023-09-08T16:22:31;32.70;36.00
19258;DHT22;9763;48.780;9.212;2023-09-08T16:26:14;32.70;36.10
19258;DHT22;9763;48.780;9.212;2023-09-08T16:29:56;32.60;36.30
19258;DHT22;9763;48.780;9.212;2023-09-08T16:33:39;32.50;36.50
19258;DHT22;9763;48.780;9.212;2023-09-08T16:37:22;32.40;36.70
19258;DHT22;9763;48.780;9.212;2023-09-08T16:41:04;32.40;36.90
19258;DHT22;9763;48.780;9.212;2023-09-08T16:44:47;32.30;37.00
19258;DHT22;9763;48.780;9.212;2023-09-08T16:48:29;32.20;37.00
19258;DHT22;9763;48.780;9.212;2023-09-08T16:52:13;32.10;37.10
19258;DHT22;9763;48.780;9.212;2023-09-08T16:55:55;32.00;37.30
19258;DHT22;9763;48.780;9.212;2023-09-08T16:59:37;32.00;37.50
19258;DHT22;9763;48.780;9.212;2023-09-08T17:03:19;31.90;37.60
19258;DHT22;9763;48.780;9.212;2023-09-08T17:07:01;31.80;37.60
19258;DHT22;9763;48.780;9.212;2023-09-08T17:10:44;31.70;37.60
19258;DHT22;9763;48.780;9.212;2023-09-08T17:14:28;31.60;37.80
19258;DHT22;9763;48.780;9.212;2023-09-08T17:18:10;31.50;38.00
19258;DHT22;9763;48.780;9.212;2023-09-08T17:21:53;31.40;38.10
19258;DHT22;9763;48.780;9.212;2023-09-08T17:25:35;31.30;38.30
19258;DHT22;9763;48.780;9.212;2023-09-08T17:29:18;31.10;38.40
19258;DHT22;9763;48.780;9.212;2023-09-08T17:33:00;31.00;38.70
19258;DHT22;9763;48.780;9.212;2023-09-08T17:36:42;30.80;38.80
19258;DHT22;9763;48.780;9.212;2023-09-08T17:40:25;30.60;39.60
19258;DHT22;9763;48.780;9.212;2023-09-08T17:44:07;30.50;39.20
19258;DHT22;9763;48.780;9.212;2023-09-08T17:47:50;30.30;39.30
19258;DHT22;9763;48.780;9.212;2023-09-08T17:51:34;30.10;39.60
19258;DHT22;9763;48.780;9.212;2023-09-08T17:55:16;30.00;39.70
19258;DHT22;9763;48.780;9.212;2023-09-08T17:58:59;29.90;39.90
19258;DHT22;9763;48.780;9.212;2023-09-08T18:02:41;29.70;40.10
19258;DHT22;9763;48.780;9.212;2023-09-08T18:06:24;29.50;40.20
19258;DHT22;9763;48.780;9.212;2023-09-08T18:10:07;29.40;40.50
19258;DHT22;9763;48.780;9.212;2023-09-08T18:13:49;29.30;40.70
19258;DHT22;9763;48.780;9.212;2023-09-08T18:17:31;29.20;40.90
19258;DHT22;9763;48.780;9.212;2023-09-08T18:21:14;29.10;41.10
19258;DHT22;9763;48.780;9.212;2023-09-08T18:24:57;28.90;41.30
19258;DHT22;9763;48.780;9.212;2023-09-08T18:28:41;28.80;41.50
19258;DHT22;9763;48.780;9.212;2023-09-08T18:32:23;28.70;41.60
19258;DHT22;9763;48.780;9.212;2023-09-08T18:36:05;28.70;41.80
19258;DHT22;9763;48.780;9.212;2023-09-08T18:39:48;28.60;42.00
19258;DHT22;9763;48.780;9.212;2023-09-08T18:43:31;28.50;42.00
19258;DHT22;9763;48.780;9.212;2023-09-08T18:47:14;28.50;42.30
19258;DHT22;9763;48.780;9.212;2023-09-08T18:50:56;28.40;42.40
19258;DHT22;9763;48.780;9.212;2023-09-08T18:54:39;28.30;42.50
19258;DHT22;9763;48.780;9.212;2023-09-08T18:58:22;28.30;42.80
19258;DHT22;9763;48.780;9.212;2023-09-08T19:02:06;28.20;42.90
19258;DHT22;9763;48.780;9.212;2023-09-08T19:05:48;28.10;43.20
19258;DHT22;9763;48.780;9.212;2023-09-08T19:09:30;28.10;43.30
19258;DHT22;9763;48.780;9.212;2023-09-08T19:13:12;28.00;43.50
19258;DHT22;9763;48.780;9.212;2023-09-08T19:16:54;27.90;43.70
19258;DHT22;9763;48.780;9.212;2023-09-08T19:20:39;27.70;43.90
19258;DHT22;9763;48.780;9.212;2023-09-08T19:24:23;27.60;44.00
19258;DHT22;9763;48.780;9.212;2023-09-08T19:28:06;27.60;44.30
19258;DHT22;9763;48.780;9.212;2023-09-08T19:31:47;27.50;44.40
19258;DHT22;9763;48.780;9.212;2023-09-08T19:35:32;27.40;44.60
19258;DHT22;9763;48.780;9.212;2023-09-08T19:39:15;27.30;44.80
19258;DHT22;9763;48.780;9.212;2023-09-08T19:42:58;27.30;44.90
19258;DHT22;9763;48.780;9.212;2023-09-08T19:46:40;27.20;45.10
19258;DHT22;9763;48.780;9.212;2023-09-08T19:50:22;27.10;45.30
19258;DHT22;9763;48.780;9.212;2023-09-08T19:54:04;27.10;45.50
19258;DHT22;9763;48.780;9.212;2023-09-08T19:57:48;27.00;46.20
19258;DHT22;9763;48.780;9.212;2023-09-08T20:01:30;26.90;45.80
19258;DHT22;9763;48.780;9.212;2023-09-08T20:05:13;26.90;45.80
19258;DHT22;9763;48.780;9.212;2023-09-08T20:08:54;26.80;46.00
19258;DHT22;9763;48.780;9.212;2023-09-08T20:12:37;26.80;46.20
19258;DHT22;9763;48.780;9.212;2023-09-08T20:16:23;26.70;46.30
19258;DHT22;9763;48.780;9.212;2023-09-08T20:20:07;26.70;46.50
19258;DHT22;9763;48.780;9.212;2023-09-08T20:23:50;26.60;46.60
19258;DHT22;9763;48.780;9.212;2023-09-08T20:27:32;26.60;46.80
19258;DHT22;9763;48.780;9.212;2023-09-08T20:31:15;26.50;46.80
19258;DHT22;9763;48.780;9.212;2023-09-08T20:34:58;26.40;47.00
19258;DHT22;9763;48.780;9.212;2023-09-08T20:38:40;26.40;47.20
19258;DHT22;9763;48.780;9.212;2023-09-08T20:42:23;26.30;47.30
19258;DHT22;9763;48.780;9.212;2023-09-08T20:46:05;26.20;47.40
19258;DHT22;9763;48.780;9.212;2023-09-08T20:49:48;26.10;47.70
19258;DHT22;9763;48.780;9.212;2023-09-08T20:53:32;26.00;47.80
19258;DHT22;9763;48.780;9.212;2023-09-08T20:57:17;26.00;48.20
19258;DHT22;9763;48.780;9.212;2023-09-08T21:01:00;25.90;48.10
19258;DHT22;9763;48.780;9.212;2023-09-08T21:04:43;25.90;48.20
19258;DHT22;9763;48.780;9.212;2023-09-08T21:08:25;25.80;48.30
19258;DHT22;9763;48.780;9.212;2023-09-08T21:12:08;25.80;48.40
19258;DHT22;9763;48.780;9.212;2023-09-08T21:15:50;25.80;48.80
19258;DHT22;9763;48.780;9.212;2023-09-08T21:19:32;25.70;48.70
19258;DHT22;9763;48.780;9.212;2023-09-08T21:23:15;25.70;48.80
19258;DHT22;9763;48.780;9.212;2023-09-08T21:26:57;25.60;49.00
19258;DHT22;9763;48.780;9.212;2023-09-08T21:30:40;25.60;49.10
19258;DHT22;9763;48.780;9.212;2023-09-08T21:34:22;25.50;49.30
19258;DHT22;9763;48.780;9.212;2023-09-08T21:38:04;25.50;49.40
19258;DHT22;9763;48.780;9.212;2023-09-08T21:41:46;25.40;49.60
19258;DHT22;9763;48.780;9.212;2023-09-08T21:45:28;25.40;49.80
19258;DHT22;9763;48.780;9.212;2023-09-08T21:49:11;25.30;49.90
19258;DHT22;9763;48.780;9.212;2023-09-08T21:52:54;25.20;50.10
19258;DHT22;9763;48.780;9.212;2023-09-08T21:56:36;25.20;51.00
19258;DHT22;9763;48.780;9.212;2023-09-08T22:00:18;25.10;50.50
19258;DHT22;9763;48.780;9.212;2023-09-08T22:04:02;25.10;50.60
19258;DHT22;9763;48.780;9.212;2023-09-08T22:07:46;25.10;50.80
19258;DHT22;9763;48.780;9.212;2023-09-08T22:11:28;25.00;51.00
19258;DHT22;9763;48.780;9.212;2023-09-08T22:15:11;25.00;50.90
19258;DHT22;9763;48.780;9.212;2023-09-08T22:18:53;25.00;51.00
19258;DHT22;9763;48.780;9.212;2023-09-08T22:22:35;25.00;51.20
19258;DHT22;9763;48.780;9.212;2023-09-08T22:26:18;24.90;51.30
19258;DHT22;9763;48.780;9.212;2023-09-08T22:30:01;24.90;51.50
19258;DHT22;9763;48.780;9.212;2023-09-08T22:33:44;24.80;51.50
19258;DHT22;9763;48.780;9.212;2023-09-08T22:37:26;24.80;51.60
19258;DHT22;9763;48.780;9.212;2023-09-08T22:41:09;24.80;51.80
19258;DHT22;9763;48.780;9.212;2023-09-08T22:44:52;24.70;51.80
19258;DHT22;9763;48.780;9.212;2023-09-08T22:48:34;24.70;52.00
19258;DHT22;9763;48.780;9.212;2023-09-08T22:52:17;24.70;52.10
19258;DHT22;9763;48.780;9.212;2023-09-08T22:55:59;24.60;52.10
19258;DHT22;9763;48.780;9.212;2023-09-08T22:59:43;24.60;52.30
19258;DHT22;9763;48.780;9.212;2023-09-08T23:03:27;24.50;52.40
19258;DHT22;9763;48.780;9.212;2023-09-08T23:07:09;24.50;52.70
19258;DHT22;9763;48.780;9.212;2023-09-08T23:10:53;24.50;52.70
19258;DHT22;9763;48.780;9.212;2023-09-08T23:14:35;24.40;52.70
19258;DHT22;9763;48.780;9.212;2023-09-08T23:18:33;24.40;52.80
19258;DHT22;9763;48.780;9.212;2023-09-08T23:22:15;24.40;53.10
19258;DHT22;9763;48.780;9.212;2023-09-08T23:25:57;24.30;53.60
19258;DHT22;9763;48.780;9.212;2023-09-08T23:29:39;24.30;53.10
19258;DHT22;9763;48.780;9.212;2023-09-08T23:33:21;24.30;53.30
19258;DHT22;9763;48.780;9.212;2023-09-08T23:37:05;24.20;53.30
19258;DHT22;9763;48.780;9.212;2023-09-08T23:40:47;24.10;53.40